Latest Weather Observations for Pallamana

IDS60801

Issued at 11:33 am CDT Sunday 7 February 2016 (issued every 30 minutes, with the page automatically refreshed every 10 minutes)

About weather observations | Map of weather stations | Latest weather observations for SA | Other Formats
Station Details ID: 024584 Name: PALLAMANA AERODROME Lat: -35.06 Lon: 139.23 Height: 45.0 m
Data from the previous 72 hours. | See also: Recent months at Pallamana
Date/Time
CDT
Temp
°C
App
Temp
°C
Dew
Point
Rel
Hum
%
Delta-T
°C
Wind Press
QNH
hPa
Press
MSL
hPa
Rain
since 9 am
mm
Dir
 
Spd
km/h
Gust
km/h
Spd
kts
Gust
kts
07/11:30am 24.7 22.4 14.6 53 6.0 SSW 20 30 11 16 - - 0.0
07/11:00am 24.0 21.4 15.0 57 5.4 SSW 22 30 12 16 - - 0.0
07/10:30am 22.4 19.5 15.0 63 4.4 SSW 24 33 13 18 - - 0.0
07/10:00am 22.1 19.5 15.0 64 4.2 SW 22 32 12 17 - - 0.0
07/09:30am 20.7 17.9 15.3 71 3.2 SW 24 30 13 16 - - 0.0
07/09:22am 20.8 18.4 15.4 71 3.2 SW 22 28 12 15 - - 0.0
07/09:00am 20.2 17.8 15.5 74 2.8 SW 22 28 12 15 - - 0.0
07/08:30am 19.6 17.3 15.6 78 2.4 SSW 22 28 12 15 - - 0.0
07/08:00am 18.7 16.0 15.7 83 1.8 SW 24 33 13 18 - - 0.0
07/07:30am 18.1 16.2 15.7 86 1.4 SW 20 30 11 16 - - 0.0
07/07:00am 17.5 15.8 15.8 90 1.0 SW 19 28 10 15 - - 0.0
07/06:38am 17.0 15.2 15.5 91 0.9 SW 19 28 10 15 - - 0.0
07/06:30am 17.0 14.6 15.5 91 0.9 SW 22 28 12 15 - - 0.0
07/06:24am 17.0 14.3 15.5 91 0.9 SW 24 32 13 17 - - 0.0
07/06:00am 17.0 13.9 15.5 91 0.9 SW 26 33 14 18 - - 0.0
07/05:47am 16.9 14.5 15.5 91 0.8 SW 22 30 12 16 - - 0.0
07/05:30am 16.7 14.8 15.2 91 0.9 SW 19 22 10 12 - - 0.0
07/05:00am 16.9 15.8 15.4 91 0.9 SW 15 20 8 11 - - 0.0
07/04:30am 17.2 15.2 15.5 90 1.0 SW 20 28 11 15 - - 0.0
07/04:00am 17.1 15.3 15.4 90 1.0 WSW 19 26 10 14 - - 0.0
07/03:30am 17.2 15.7 15.3 88 1.1 WSW 17 22 9 12 - - 0.0
07/03:00am 17.5 16.1 15.5 88 1.2 WSW 17 26 9 14 - - 0.0
07/02:30am 17.7 16.2 15.3 86 1.4 WSW 17 20 9 11 - - 0.0
07/02:05am 17.9 15.9 15.5 86 1.4 SW 20 28 11 15 - - 0.0
07/02:00am 18.0 16.0 15.6 86 1.4 SW 20 28 11 15 - - 0.0
07/01:30am 18.4 16.4 15.5 83 1.7 SSW 20 28 11 15 - - 0.0
07/01:00am 17.9 16.2 15.7 87 1.3 SSW 19 24 10 13 - - 0.0
07/12:54am 17.9 16.2 15.7 87 1.3 SSW 19 24 10 13 - - 0.0
07/12:31am 17.9 16.0 15.7 87 1.3 SW 20 26 11 14 - - 0.0
07/12:30am 17.9 16.0 15.7 87 1.3 SW 20 28 11 15 - - 0.0
07/12:00am 18.0 16.7 15.8 87 1.3 SSW 17 24 9 13 - - 0.0
 
Date/Time
CDT
Temp
°C
App
Temp
°C
Dew
Point
Rel
Hum
%
Delta-T
°C
Wind Press
QNH
hPa
Press
MSL
hPa
Rain
since 9 am
mm
Dir
 
Spd
km/h
Gust
km/h
Spd
kts
Gust
kts
06/11:30pm 18.6 16.0 15.9 84 1.6 SW 24 32 13 17 - - 0.0
06/11:00pm 18.4 16.2 15.9 85 1.5 SW 22 32 12 17 - - 0.0
06/10:30pm 18.5 15.6 16.0 85 1.5 SW 26 35 14 19 - - 0.0
06/10:00pm 18.5 15.9 16.0 85 1.5 SSW 24 33 13 18 - - 0.0
06/09:44pm 18.5 16.4 16.2 86 1.4 SSW 22 28 12 15 - - 0.0
06/09:30pm 18.5 17.0 16.2 86 1.4 SSW 19 28 10 15 - - 0.0
06/09:00pm 18.9 17.1 16.0 83 1.7 SSW 20 26 11 14 - - 0.0
06/08:30pm 19.6 17.0 15.9 79 2.2 SW 24 32 13 17 - - 0.0
06/08:00pm 20.8 17.8 15.8 73 3.0 SSW 26 37 14 20 - - 0.0
06/07:30pm 21.9 17.8 15.9 68 3.6 SSW 32 46 17 25 - - 0.0
06/07:00pm 23.2 18.8 15.7 62 4.5 SSW 33 43 18 23 - - 0.0
06/06:30pm 25.9 20.2 15.1 51 6.5 SW 39 48 21 26 - - 0.0
06/06:00pm 28.4 22.6 14.9 43 8.2 SW 39 46 21 25 - - 0.0
06/05:30pm 30.3 25.4 15.2 40 9.3 SW 35 43 19 23 - - 0.0
06/05:00pm 31.2 26.0 12.7 32 11.0 SSW 32 44 17 24 - - 0.0
06/04:30pm 33.0 28.7 13.1 30 12.0 S 28 37 15 20 - - 0.0
06/04:00pm 33.5 29.1 7.5 20 14.4 SSE 20 30 11 16 - - 0.0
06/03:30pm 34.0 29.8 5.9 17 15.2 S 17 22 9 12 - - 0.0
06/03:00pm 33.8 30.6 5.1 16 15.3 WSW 11 17 6 9 - - 0.0
06/02:30pm 33.1 29.9 2.8 14 15.5 NNW 9 13 5 7 - - 0.0
06/02:00pm 32.9 28.6 3.5 15 15.2 E 15 24 8 13 - - 0.0
06/01:30pm 32.0 28.2 5.8 19 14.0 ESE 15 22 8 12 - - 0.0
06/01:00pm 32.2 29.0 6.8 20 13.8 SE 13 20 7 11 - - 0.0
06/12:30pm 31.0 28.9 9.6 26 12.1 SSE 11 17 6 9 - - 0.0
06/12:00pm 30.0 28.9 11.8 32 10.6 SE 9 13 5 7 - - 0.0
06/11:30am 28.5 26.7 11.0 33 10.0 E 11 17 6 9 - - 0.0
06/11:00am 27.0 26.8 13.5 43 8.0 SE 7 13 4 7 - - 0.0
06/10:30am 25.2 25.4 14.7 52 6.3 SSW 7 13 4 7 - - 0.0
06/10:00am 23.3 23.7 15.3 60 4.8 S 7 11 4 6 - - 0.0
06/09:30am 21.7 22.0 16.1 70 3.4 WSW 9 13 5 7 - - 0.0
06/09:00am 20.2 19.7 15.8 76 2.6 WSW 13 17 7 9 - - 0.0
06/08:30am 19.0 17.8 16.0 83 1.8 WSW 17 19 9 10 - - 0.0
06/08:15am 18.4 17.2 16.2 87 1.3 WSW 17 20 9 11 - - 0.0
06/08:01am 18.1 17.0 16.3 89 1.1 SW 17 22 9 12 - - 0.0
06/08:00am 18.0 16.9 16.3 90 1.0 SW 17 22 9 12 - - 0.0
06/07:57am 18.0 16.9 16.3 90 1.0 SW 17 22 9 12 - - 0.0
06/07:30am 17.4 15.9 16.2 93 0.7 SW 19 22 10 12 - - 0.0
06/07:00am 16.9 15.3 16.1 95 0.5 SW 19 28 10 15 - - 0.0
06/06:30am 16.8 15.1 15.8 94 0.6 SW 19 26 10 14 - - 0.0
06/06:00am 16.7 15.4 15.9 95 0.5 SW 17 24 9 13 - - 0.0
06/05:33am 16.8 15.0 16.0 95 0.5 WSW 20 28 11 15 - - 0.0
06/05:30am 16.7 14.9 15.9 95 0.5 WSW 20 28 11 15 - - 0.0
06/05:23am 16.7 15.4 15.9 95 0.5 SW 17 24 9 13 - - 0.0
06/05:00am 16.7 14.9 16.0 96 0.4 WSW 20 28 11 15 - - 0.0
06/04:30am 16.7 14.5 15.9 95 0.5 WSW 22 30 12 16 - - 0.0
06/04:17am 16.6 14.3 15.7 94 0.5 WSW 22 28 12 15 - - 0.0
06/04:00am 16.6 14.3 15.6 94 0.6 WSW 22 28 12 15 - - 0.0
06/03:30am 16.6 14.2 15.4 93 0.7 WSW 22 30 12 16 - - 0.0
06/03:00am 16.6 14.1 15.2 91 0.8 WSW 22 32 12 17 - - 0.0
06/02:30am 16.6 13.6 14.9 90 1.0 WSW 24 32 13 17 - - 0.0
06/02:00am 16.6 13.3 14.9 90 1.0 WSW 26 35 14 19 - - 0.0
06/01:30am 16.5 14.4 14.8 90 1.0 SW 19 26 10 14 - - 0.0
06/01:00am 16.7 13.7 14.8 88 1.1 SW 24 32 13 17 - - 0.0
06/12:30am 16.8 12.9 14.5 86 1.3 WSW 28 37 15 20 - - 0.0
06/12:00am 16.9 13.8 14.5 86 1.4 SW 24 32 13 17 - - 0.0
 
Date/Time
CDT
Temp
°C
App
Temp
°C
Dew
Point
Rel
Hum
%
Delta-T
°C
Wind Press
QNH
hPa
Press
MSL
hPa
Rain
since 9 am
mm
Dir
 
Spd
km/h
Gust
km/h
Spd
kts
Gust
kts
05/11:30pm 17.0 13.9 14.6 86 1.4 WSW 24 32 13 17 - - 0.0
05/11:00pm 17.1 14.0 14.5 85 1.5 WSW 24 30 13 16 - - 0.0
05/10:30pm 17.3 14.5 14.3 82 1.7 SW 22 28 12 15 - - 0.0
05/10:00pm 17.5 15.7 14.4 82 1.8 SW 17 22 9 12 - - 0.0
05/09:30pm 18.0 15.5 14.0 77 2.3 SSW 20 28 11 15 - - 0.0
05/09:00pm 18.4 16.0 13.9 75 2.6 SSW 19 26 10 14 - - 0.0
05/08:30pm 19.0 14.6 13.0 68 3.4 SW 28 39 15 21 - - 0.0
05/08:00pm 20.0 15.1 12.7 63 4.1 SSW 30 35 16 19 - - 0.0
05/07:30pm 21.0 15.8 12.7 59 4.7 SSW 32 39 17 21 - - 0.0
05/07:00pm 22.1 16.8 12.6 55 5.4 SSW 32 39 17 21 - - 0.0
05/06:30pm 23.4 18.1 12.6 50 6.2 SSW 32 41 17 22 - - 0.0
05/06:00pm 23.9 18.8 13.0 50 6.3 SSW 32 39 17 21 - - 0.0
05/05:30pm 25.0 20.6 12.9 47 7.0 SSW 28 37 15 20 - - 0.0
05/05:00pm 26.4 22.5 12.2 41 8.2 SSW 24 32 13 17 - - 0.0
05/04:30pm 27.2 23.6 11.9 38 8.8 S 22 30 12 16 - - 0.0
05/04:00pm 26.8 23.0 11.1 37 8.9 SSE 22 32 12 17 - - 0.0
05/03:30pm 26.7 23.3 11.2 38 8.8 SSE 20 32 11 17 - - 0.0
05/03:00pm 26.0 23.2 11.2 39 8.4 SSE 17 28 9 15 - - 0.0
05/02:30pm 26.1 23.8 10.6 37 8.7 S 13 24 7 13 - - 0.0
05/02:00pm 25.3 22.8 10.9 40 8.1 SE 15 24 8 13 - - 0.0
05/01:30pm 23.9 21.7 10.8 43 7.3 SSE 13 28 7 15 - - 0.0
05/01:00pm 23.4 20.8 10.6 44 7.1 SSW 15 22 8 12 - - 0.0
05/12:30pm 22.8 20.2 10.7 46 6.7 SE 15 22 8 12 - - 0.0
05/12:00pm 21.6 19.2 10.2 48 6.2 SSW 13 22 7 12 - - 0.0
05/11:30am 20.5 18.2 10.4 52 5.5 SE 13 19 7 10 - - 0.0
05/11:00am 19.2 16.9 10.3 56 4.8 SSE 13 22 7 12 - - 0.0
05/10:30am 17.9 15.5 10.0 60 4.2 SSE 13 20 7 11 - - 0.0
05/10:00am 16.7 14.3 9.9 64 3.6 SSE 13 20 7 11 - - 0.0
05/09:30am 16.3 13.0 9.6 64 3.5 SSE 17 22 9 12 - - 0.0
05/09:00am 15.4 11.8 9.8 69 2.9 S 19 26 10 14 - - -
05/08:57am 15.4 11.8 9.8 69 2.9 S 19 26 10 14 - - -
05/08:38am 14.7 10.9 9.7 72 2.6 S 20 28 11 15 - - -
05/08:30am 15.0 10.8 9.8 71 2.7 S 22 30 12 16 - - -
05/08:00am 13.9 9.7 9.6 75 2.2 S 22 32 12 17 - - -
05/07:30am 13.5 10.3 10.0 79 1.8 SSW 17 24 9 13 - - -
05/07:00am 12.5 9.3 10.0 85 1.3 SSW 17 22 9 12 - - -
05/06:30am 12.5 9.3 9.8 83 1.4 SSW 17 20 9 11 - - -
05/06:00am 12.8 9.6 9.9 82 1.5 S 17 20 9 11 - - -
05/05:47am 12.7 9.9 10.0 84 1.4 S 15 20 8 11 - - -
05/05:30am 12.8 9.3 10.1 84 1.4 SSW 19 26 10 14 - - -
05/05:28am 12.8 9.3 10.1 84 1.4 SSW 19 26 10 14 - - -
05/05:23am 12.8 9.3 10.3 85 1.3 SSW 19 26 10 14 - - -
05/05:04am 12.8 9.7 10.3 85 1.3 SSW 17 22 9 12 - - -
05/05:00am 12.6 9.5 10.3 86 1.2 SSW 17 22 9 12 - - -
05/04:30am 13.0 9.4 10.5 85 1.3 SSW 20 30 11 16 - - -
05/04:00am 13.4 10.3 10.3 81 1.6 SSW 17 22 9 12 - - -
05/03:30am 13.7 10.2 10.2 79 1.8 SSW 19 24 10 13 - - -
05/03:00am 13.7 10.4 10.9 83 1.5 SSW 19 24 10 13 - - 0.0
05/02:30am 13.9 10.8 11.5 85 1.3 SSW 19 24 10 13 - - -
05/02:00am 14.3 11.1 11.9 85 1.3 SSW 20 26 11 14 - - -
05/01:30am 14.7 11.7 12.1 84 1.4 SW 19 24 10 13 - - -
05/01:00am 15.0 12.1 12.4 84 1.4 SW 19 24 10 13 - - -
05/12:30am 15.5 12.5 12.6 83 1.6 SSW 20 26 11 14 - - -
05/12:00am 15.8 12.9 12.9 83 1.6 SSW 20 24 11 13 - - -
 
Date/Time
CDT
Temp
°C
App
Temp
°C
Dew
Point
Rel
Hum
%
Delta-T
°C
Wind Press
QNH
hPa
Press
MSL
hPa
Rain
since 9 am
mm
Dir
 
Spd
km/h
Gust
km/h
Spd
kts
Gust
kts
04/11:30pm 15.6 12.9 12.9 84 1.5 SSW 19 22 10 12 - - -
04/11:00pm 15.9 13.0 13.0 83 1.6 SSW 20 24 11 13 - - -
04/10:30pm 16.2 13.3 13.0 81 1.8 SSW 20 28 11 15 - - -
04/10:00pm 16.3 12.6 12.7 79 2.0 SSW 24 28 13 15 - - -
04/09:30pm 16.5 13.0 12.1 75 2.4 SSW 22 28 12 15 - - -
04/09:00pm 17.1 13.9 11.8 71 2.9 SSW 20 30 11 16 - - 0.0
04/08:30pm 17.6 13.9 11.6 68 3.3 SSW 22 32 12 17 - - -
04/08:00pm 18.4 12.9 11.9 66 3.6 SSW 32 44 17 24 - - -
04/07:30pm 19.4 13.3 11.8 61 4.2 SSW 35 46 19 25 - - -
04/07:10pm 19.8 13.2 11.5 58 4.6 SSW 37 48 20 26 - - -
04/07:00pm 20.3 14.2 11.7 57 4.8 SSW 35 48 19 26 - - -
04/06:50pm 20.5 14.4 11.9 57 4.8 SSW 35 48 19 26 - - -
04/06:47pm 20.1 13.6 11.8 59 4.6 SSW 37 48 20 26 - - -
04/06:30pm 20.6 13.6 11.4 55 5.1 SSW 39 52 21 28 - - -
04/06:28pm 20.5 13.5 11.3 55 5.1 SSW 39 52 21 28 - - -
04/06:00pm 21.4 14.4 11.1 52 5.7 SSW 39 54 21 29 - - -
04/05:30pm 21.5 14.1 11.2 52 5.7 SSW 41 56 22 30 - - -
04/05:00pm 22.2 15.1 11.0 49 6.2 SSW 39 54 21 29 - - -
04/04:30pm 23.0 16.5 10.5 45 6.9 SSW 35 54 19 29 - - -
04/04:01pm 22.5 16.0 10.5 46 6.6 SSW 35 54 19 29 1018.6 1018.4 -
04/04:00pm 22.3 15.4 10.4 47 6.5 SSW 37 54 20 29 1018.6 1018.4 -
04/03:30pm 22.3 15.4 10.4 47 6.5 S 37 50 20 27 1018.9 1018.7 -
04/03:00pm 21.9 14.9 9.9 46 6.5 SSW 37 50 20 27 1019.0 1018.8 -
04/02:30pm 23.2 16.5 9.8 42 7.3 SSW 35 56 19 30 1019.3 1019.1 -
04/02:25pm 22.7 16.2 10.5 46 6.7 SSW 35 54 19 29 1019.2 1019.0 -
04/02:00pm 22.2 15.0 9.1 43 7.0 SSW 37 46 20 25 1019.4 1019.2 -
04/01:58pm 22.6 15.8 9.4 43 7.1 SSW 35 46 19 25 1019.4 1019.2 -
04/01:39pm 22.1 15.4 9.7 45 6.7 SSW 35 48 19 26 1019.6 1019.4 -
04/01:30pm 21.7 15.2 9.1 44 6.7 SSW 33 48 18 26 1019.7 1019.5 -
04/01:12pm 21.6 15.1 9.0 44 6.7 SSW 33 52 18 28 1019.8 1019.6 -
04/01:00pm 20.9 14.0 9.0 46 6.3 S 35 50 19 27 1020.0 1019.8 -
04/12:30pm 21.8 16.0 9.5 45 6.6 S 30 43 16 23 1020.4 1020.2 -
04/12:00pm 20.7 14.5 9.2 47 6.1 S 32 46 17 25 1020.7 1020.5 -

Other Formats:

Comma delimited format used in spreadsheet applications
http://www.bom.gov.au/fwo/IDS60801/IDS60801.95818.axf

JavaScript Object Notation format (JSON) in row-major order
http://www.bom.gov.au/fwo/IDS60801/IDS60801.95818.json